createdAt,value
2023-03-10T00:01:21.285Z,99071.03
2023-03-10T00:03:49.383Z,99058.28
2023-03-10T00:06:21.315Z,99057.78
2023-03-10T00:08:49.096Z,99043.50
2023-03-10T00:11:16.589Z,99040.88
2023-03-10T00:13:44.230Z,99037.97
2023-03-10T00:16:27.106Z,99034.53
2023-03-10T00:18:54.739Z,99030.03
2023-03-10T00:21:26.280Z,99026.59
2023-03-10T00:23:54.047Z,99018.16
2023-03-10T00:26:23.117Z,99024.50
2023-03-10T00:28:50.902Z,99017.59
2023-03-10T00:31:23.081Z,99021.84
2023-03-10T00:33:52.068Z,99013.59
2023-03-10T00:36:25.847Z,98995.84
2023-03-10T00:38:54.531Z,98988.47
2023-03-10T00:41:25.069Z,98976.28
2023-03-10T00:43:52.799Z,98978.38
2023-03-10T00:46:20.163Z,98969.63
2023-03-10T00:48:47.598Z,98971.22
2023-03-10T00:51:15.275Z,98956.13
2023-03-10T00:53:42.896Z,98946.81
2023-03-10T00:56:25.688Z,98950.84
2023-03-10T00:58:56.121Z,98943.38
2023-03-10T01:01:27.482Z,98937.75
2023-03-10T01:03:57.909Z,98929.34
2023-03-10T01:06:26.091Z,98931.19
2023-03-10T01:08:53.665Z,98933.34
2023-03-10T01:11:25.436Z,98924.38
2023-03-10T01:13:53.221Z,98916.19
2023-03-10T01:16:20.296Z,98911.94
2023-03-10T01:18:48.089Z,98907.19
2023-03-10T01:21:25.017Z,98897.97
2023-03-10T01:23:52.445Z,98886.81
2023-03-10T01:26:19.723Z,98887.06
2023-03-10T01:28:48.981Z,98879.91
2023-03-10T01:31:18.181Z,98862.75
2023-03-10T01:33:46.585Z,98855.84
2023-03-10T01:36:21.906Z,98853.69
2023-03-10T01:38:49.550Z,98854.47
2023-03-10T01:41:18.010Z,98842.28
2023-03-10T01:43:48.597Z,98826.41
2023-03-10T01:46:42.981Z,98831.69
2023-03-10T01:49:44.890Z,98821.84
2023-03-10T01:52:20.896Z,98817.34
2023-03-10T01:54:57.321Z,98798.50
2023-03-10T01:57:27.907Z,98800.59
2023-03-10T01:59:56.875Z,98791.28
2023-03-10T02:02:25.865Z,98786.31
2023-03-10T02:04:54.645Z,98787.41
2023-03-10T02:07:26.962Z,98778.69
2023-03-10T02:09:56.209Z,98780.28
2023-03-10T02:12:23.464Z,98770.72
2023-03-10T02:14:52.937Z,98763.59
2023-03-10T02:17:23.407Z,98751.97
2023-03-10T02:20:12.110Z,98751.97
2023-03-10T02:22:40.098Z,98741.38
2023-03-10T02:25:22.527Z,98732.38
2023-03-10T02:27:49.978Z,98725.53
2023-03-10T02:30:25.019Z,98733.00
2023-03-10T02:32:57.888Z,98711.56
2023-03-10T02:35:25.271Z,98705.72
2023-03-10T02:37:56.669Z,98715.25
2023-03-10T02:40:38.000Z,98704.72
2023-03-10T02:43:20.507Z,98685.09
2023-03-10T02:45:52.201Z,98668.97
2023-03-10T02:48:31.282Z,98680.59
2023-03-10T02:51:02.372Z,98682.19
2023-03-10T02:53:30.493Z,98668.72
2023-03-10T02:55:58.523Z,98663.41
2023-03-10T02:58:29.970Z,98671.34
2023-03-10T03:00:57.815Z,98655.72
2023-03-10T03:03:25.285Z,98640.38
2023-03-10T03:05:53.018Z,98654.41
2023-03-10T03:08:20.989Z,98646.72
2023-03-10T03:10:48.188Z,98633.72
2023-03-10T03:13:15.681Z,98628.94
2023-03-10T03:15:42.963Z,98625.25
2023-03-10T03:18:11.186Z,98621.00
2023-03-10T03:20:41.023Z,98620.69
2023-03-10T03:23:08.755Z,98622.28
2023-03-10T03:25:39.103Z,98611.16
2023-03-10T03:28:09.796Z,98605.81
2023-03-10T03:30:38.086Z,98600.25
2023-03-10T03:33:07.206Z,98603.69
2023-03-10T03:35:37.365Z,98593.13
2023-03-10T03:38:06.422Z,98589.72
2023-03-10T03:40:36.385Z,98568.78
2023-03-10T03:43:05.620Z,98585.22
2023-03-10T03:45:34.268Z,98589.72
2023-03-10T03:48:02.083Z,98581.28
2023-03-10T03:50:31.895Z,98580.22
2023-03-10T03:53:05.841Z,98569.63
2023-03-10T03:55:33.969Z,98557.75
2023-03-10T03:58:01.282Z,98539.47
2023-03-10T04:00:28.387Z,98532.31
2023-03-10T04:03:02.263Z,98530.47
2023-03-10T04:05:30.839Z,98514.28
2023-03-10T04:07:58.233Z,98509.25
2023-03-10T04:10:28.549Z,98500.50
2023-03-10T04:12:56.207Z,98494.97
2023-03-10T04:15:24.776Z,98494.97
2023-03-10T04:17:51.902Z,98490.72
2023-03-10T04:20:19.086Z,98495.50
2023-03-10T04:22:49.723Z,98493.41
2023-03-10T04:25:18.595Z,98488.63
2023-03-10T04:27:46.285Z,98490.75
2023-03-10T04:30:15.039Z,98501.09
2023-03-10T04:32:47.928Z,98491.31
2023-03-10T04:35:16.841Z,98495.56
2023-03-10T04:37:44.862Z,98491.31
2023-03-10T04:40:15.029Z,98489.72
2023-03-10T04:42:42.928Z,98492.91
2023-03-10T04:45:11.596Z,98482.31
2023-03-10T04:47:40.626Z,98477.31
2023-03-10T04:50:08.457Z,98478.66
2023-03-10T04:52:35.425Z,98476.59
2023-03-10T04:55:02.603Z,98475.78
2023-03-10T04:57:30.077Z,98466.47
2023-03-10T04:59:57.245Z,98468.13
2023-03-10T05:02:24.454Z,98455.16
2023-03-10T05:04:52.081Z,98449.84
2023-03-10T05:07:21.310Z,98447.75
2023-03-10T05:09:49.923Z,98460.22
2023-03-10T05:12:17.281Z,98439.03
2023-03-10T05:14:44.431Z,98435.63
2023-03-10T05:17:12.502Z,98438.59
2023-03-10T05:19:39.830Z,98433.03
2023-03-10T05:22:08.235Z,98421.88
2023-03-10T05:24:37.092Z,98424.84
2023-03-10T05:27:04.474Z,98417.97
2023-03-10T05:29:32.372Z,98417.97
2023-03-10T05:32:07.699Z,98409.22
2023-03-10T05:34:38.592Z,98400.22
2023-03-10T05:37:06.087Z,98399.44
2023-03-10T05:39:33.699Z,98402.09
2023-03-10T05:42:04.505Z,98406.88
2023-03-10T05:44:34.152Z,98399.69
2023-03-10T05:47:02.856Z,98386.16
2023-03-10T05:49:30.803Z,98407.66
2023-03-10T05:51:59.117Z,98386.72
2023-03-10T05:54:26.445Z,98382.75
2023-03-10T05:56:53.481Z,98375.88
2023-03-10T05:59:23.175Z,98383.03
2023-03-10T06:01:52.037Z,98373.22
2023-03-10T06:04:19.164Z,98376.66
2023-03-10T06:06:48.803Z,98371.38
2023-03-10T06:09:15.853Z,98365.03
2023-03-10T06:11:42.891Z,98366.63
2023-03-10T06:14:10.145Z,98375.41
2023-03-10T06:16:37.325Z,98361.38
2023-03-10T06:19:04.427Z,98368.78
2023-03-10T06:21:31.531Z,98369.06
2023-03-10T06:23:59.279Z,98369.91
2023-03-10T06:26:26.540Z,98375.47
2023-03-10T06:28:53.344Z,98375.22
2023-03-10T06:31:24.418Z,98369.94
2023-03-10T06:33:52.603Z,98352.69
2023-03-10T06:36:20.794Z,98368.34
2023-03-10T06:38:48.466Z,98365.44
2023-03-10T06:41:16.612Z,98362.81
2023-03-10T06:43:43.549Z,98368.91
2023-03-10T06:46:11.933Z,98357.50
2023-03-10T06:48:40.907Z,98380.06
2023-03-10T06:51:11.585Z,98368.41
2023-03-10T06:53:38.786Z,98351.94
2023-03-10T06:56:28.423Z,98369.72
2023-03-10T06:58:55.947Z,98360.47
2023-03-10T07:01:26.365Z,98363.38
2023-03-10T07:03:54.929Z,98351.47
2023-03-10T07:06:23.480Z,98346.41
2023-03-10T07:08:51.265Z,98354.38
2023-03-10T07:11:19.016Z,98349.34
2023-03-10T07:13:46.139Z,98344.84
2023-03-10T07:16:14.199Z,98353.06
2023-03-10T07:18:41.835Z,98356.56
2023-03-10T07:21:17.905Z,98345.44
2023-03-10T07:23:46.444Z,98360.56
2023-03-10T07:26:16.081Z,98347.28
2023-03-10T07:28:43.082Z,98355.53
2023-03-10T07:31:14.142Z,98348.91
2023-03-10T07:33:41.139Z,98357.91
2023-03-10T07:36:15.413Z,98351.03
2023-03-10T07:38:42.341Z,98357.41
2023-03-10T07:41:13.566Z,98354.50
2023-03-10T07:43:40.599Z,98362.47
2023-03-10T07:46:11.267Z,98349.19
2023-03-10T07:48:39.614Z,98352.38
2023-03-10T07:51:07.573Z,98353.97
2023-03-10T07:53:34.844Z,98342.81
2023-03-10T07:56:11.395Z,98353.16
2023-03-10T07:58:39.686Z,98348.38
2023-03-10T08:01:18.083Z,98343.06
2023-03-10T08:03:47.789Z,98337.50
2023-03-10T08:06:35.882Z,98334.56
2023-03-10T08:09:04.074Z,98346.75
2023-03-10T08:11:31.750Z,98332.13
2023-03-10T08:13:59.288Z,98327.84
2023-03-10T08:16:26.825Z,98324.09
2023-03-10T08:18:54.879Z,98334.41
2023-03-10T08:21:22.357Z,98318.94
2023-03-10T08:23:51.036Z,98321.56
2023-03-10T08:26:19.908Z,98334.53
2023-03-10T08:28:48.248Z,98329.41
2023-03-10T08:31:20.988Z,98330.13
2023-03-10T08:33:49.560Z,98328.75
2023-03-10T08:36:20.596Z,98326.31
2023-03-10T08:38:50.077Z,98331.59
2023-03-10T08:41:25.932Z,98336.06
2023-03-10T08:43:55.390Z,98333.34
2023-03-10T08:46:25.060Z,98332.75
2023-03-10T08:48:52.221Z,98329.22
2023-03-10T08:51:20.138Z,98331.03
2023-03-10T08:53:49.890Z,98335.50
2023-03-10T08:56:21.311Z,98327.13
2023-03-10T08:58:49.732Z,98334.22
2023-03-10T09:01:18.185Z,98344.28
2023-03-10T09:03:46.297Z,98336.44
2023-03-10T09:06:14.735Z,98341.63
2023-03-10T09:08:42.657Z,98338.53
2023-03-10T09:11:16.355Z,98324.34
2023-03-10T09:13:44.008Z,98333.56
2023-03-10T09:16:13.473Z,98330.19
2023-03-10T09:18:41.392Z,98329.88
2023-03-10T09:21:11.287Z,98349.31
2023-03-10T09:23:41.367Z,98336.38
2023-03-10T09:26:08.917Z,98348.47
2023-03-10T09:28:36.641Z,98354.72
2023-03-10T09:31:06.069Z,98355.13
2023-03-10T09:33:34.093Z,98362.66
2023-03-10T09:36:06.920Z,98362.72
2023-03-10T09:38:36.096Z,98359.44
2023-03-10T09:41:22.738Z,98374.00
2023-03-10T09:44:02.956Z,98367.34
2023-03-10T09:47:05.691Z,98357.28
2023-03-10T09:49:40.251Z,98362.28
2023-03-10T09:52:42.013Z,98358.28
2023-03-10T09:55:28.697Z,98357.50
2023-03-10T09:57:57.456Z,98358.84
2023-03-10T10:00:33.544Z,98352.59
2023-03-10T10:03:23.553Z,98364.84
2023-03-10T10:05:53.453Z,98363.09
2023-03-10T10:08:29.296Z,98360.94
2023-03-10T10:10:59.594Z,98361.59
2023-03-10T10:13:30.466Z,98359.25
2023-03-10T10:16:33.608Z,98352.16
2023-03-10T10:19:21.494Z,98355.44
2023-03-10T10:21:53.673Z,98363.00
2023-03-10T10:24:21.076Z,98359.66
2023-03-10T10:26:48.238Z,98365.03
2023-03-10T10:29:29.689Z,98368.22
2023-03-10T10:32:06.955Z,98367.56
2023-03-10T10:34:34.683Z,98368.78
2023-03-10T10:37:01.900Z,98373.50
2023-03-10T10:39:43.115Z,98367.47
2023-03-10T10:42:24.200Z,98380.84
2023-03-10T10:45:04.620Z,98389.63
2023-03-10T10:47:47.348Z,98393.66
2023-03-10T10:50:18.691Z,98395.16
2023-03-10T10:52:51.623Z,98390.72
2023-03-10T10:55:29.686Z,98402.56
2023-03-10T10:58:01.812Z,98395.66
2023-03-10T11:00:30.793Z,98391.00
2023-03-10T11:02:58.094Z,98396.53
2023-03-10T11:05:35.821Z,98397.19
2023-03-10T11:08:18.908Z,98402.91
2023-03-10T11:11:02.124Z,98403.19
2023-03-10T11:14:03.160Z,98404.94
2023-03-10T11:16:53.222Z,98383.81
2023-03-10T11:19:32.062Z,98389.34
2023-03-10T11:22:33.962Z,98390.75
2023-03-10T11:25:21.838Z,98387.28
2023-03-10T11:28:01.969Z,98401.66
2023-03-10T11:30:38.198Z,98400.41
2023-03-10T11:33:16.995Z,98406.06
2023-03-10T11:35:54.616Z,98404.94
2023-03-10T11:38:37.673Z,98410.44
2023-03-10T11:41:24.613Z,98404.28
2023-03-10T11:44:31.824Z,98399.19
2023-03-10T11:47:06.812Z,98399.38
2023-03-10T11:49:41.660Z,98399.09
2023-03-10T11:52:19.364Z,98413.91
2023-03-10T11:55:07.327Z,98404.06
2023-03-10T11:57:45.782Z,98411.63
2023-03-10T12:00:26.029Z,98402.13
2023-03-10T12:03:36.174Z,98394.94
2023-03-10T12:06:04.964Z,98402.63
2023-03-10T12:08:35.078Z,98398.94
2023-03-10T12:11:06.619Z,98408.09
2023-03-10T12:13:48.196Z,98400.00
2023-03-10T12:16:20.926Z,98401.53
2023-03-10T12:18:48.187Z,98392.69
2023-03-10T12:21:20.908Z,98400.84
2023-03-10T12:23:53.817Z,98405.44
2023-03-10T12:26:39.230Z,98397.06
2023-03-10T12:29:24.544Z,98397.38
2023-03-10T12:31:53.934Z,98399.31
2023-03-10T12:34:31.517Z,98388.84
2023-03-10T12:37:11.308Z,98389.41
2023-03-10T12:39:45.949Z,98395.03
2023-03-10T12:42:33.069Z,98394.84
2023-03-10T12:45:18.421Z,98400.81
2023-03-10T12:48:19.702Z,98394.56
2023-03-10T12:50:56.108Z,98402.13
2023-03-10T12:53:38.722Z,98400.41
2023-03-10T12:56:16.608Z,98395.50
2023-03-10T12:59:05.272Z,98400.41
2023-03-10T13:01:43.246Z,98401.19
2023-03-10T13:04:20.322Z,98395.19
2023-03-10T13:06:49.036Z,98398.78
2023-03-10T13:09:26.435Z,98390.84
2023-03-10T13:12:07.740Z,98382.09
2023-03-10T13:14:39.396Z,98386.53
2023-03-10T13:17:30.536Z,98392.28
2023-03-10T13:20:11.713Z,98388.34
2023-03-10T13:22:39.197Z,98385.63
2023-03-10T13:25:12.474Z,98390.25
2023-03-10T13:27:39.590Z,98386.88
2023-03-10T13:30:26.682Z,98382.25
2023-03-10T13:32:59.613Z,98376.16
2023-03-10T13:35:36.684Z,98385.50
2023-03-10T13:38:16.617Z,98388.16
2023-03-10T13:40:48.660Z,98387.91
2023-03-10T13:43:41.774Z,98386.22
2023-03-10T13:46:19.110Z,98383.72
2023-03-10T13:48:49.928Z,98383.06
2023-03-10T13:51:32.251Z,98382.41
2023-03-10T13:54:32.624Z,98374.53
2023-03-10T13:57:25.421Z,98368.91
2023-03-10T13:59:55.005Z,98383.22
2023-03-10T14:02:35.953Z,98386.25
2023-03-10T14:05:06.768Z,98377.91
2023-03-10T14:07:37.467Z,98380.28
2023-03-10T14:10:04.410Z,98379.69
2023-03-10T14:12:37.554Z,98365.59
2023-03-10T14:15:19.374Z,98368.06
2023-03-10T14:17:50.264Z,98376.69
2023-03-10T14:20:45.209Z,98376.22
2023-03-10T14:23:26.242Z,98373.38
2023-03-10T14:25:56.340Z,98381.03
2023-03-10T14:28:30.659Z,98370.41
2023-03-10T14:31:02.569Z,98378.44
2023-03-10T14:33:29.609Z,98369.94
2023-03-10T14:35:57.295Z,98362.88
2023-03-10T14:38:24.364Z,98365.78
2023-03-10T14:40:53.702Z,98376.56
2023-03-10T14:43:26.755Z,98380.56
2023-03-10T14:45:57.646Z,98368.09
2023-03-10T14:48:27.907Z,98369.34
2023-03-10T14:50:56.908Z,98369.66
2023-03-10T14:53:27.041Z,98369.84
2023-03-10T14:55:56.468Z,98367.97
2023-03-10T14:58:28.992Z,98366.06
2023-03-10T15:00:56.105Z,98372.88
2023-03-10T15:03:22.991Z,98376.03
2023-03-10T15:05:49.915Z,98375.56
2023-03-10T15:08:17.882Z,98379.72
2023-03-10T15:10:49.699Z,98380.47
2023-03-10T15:13:22.948Z,98383.41
2023-03-10T15:15:50.653Z,98388.72
2023-03-10T15:18:21.763Z,98388.34
2023-03-10T15:20:49.454Z,98391.69
2023-03-10T15:23:20.077Z,98387.03
2023-03-10T15:25:47.979Z,98383.09
2023-03-10T15:28:15.263Z,98382.06
2023-03-10T15:30:42.402Z,98394.75
2023-03-10T15:33:10.761Z,98397.19
2023-03-10T15:35:39.064Z,98396.22
2023-03-10T15:38:06.148Z,98392.47
2023-03-10T15:40:34.848Z,98391.09
2023-03-10T15:43:01.928Z,98390.16
2023-03-10T15:45:30.851Z,98403.50
2023-03-10T15:47:58.497Z,98399.53
2023-03-10T15:50:26.195Z,98407.56
2023-03-10T15:52:56.342Z,98413.88
2023-03-10T15:55:25.009Z,98410.41
2023-03-10T15:57:52.936Z,98421.88
2023-03-10T16:00:23.116Z,98431.16
2023-03-10T16:02:51.223Z,98434.00
2023-03-10T16:05:19.496Z,98418.72
2023-03-10T16:07:46.643Z,98403.09
2023-03-10T16:10:17.717Z,98385.72
2023-03-10T16:12:44.798Z,98403.03
2023-03-10T16:15:13.703Z,98397.59
2023-03-10T16:17:41.906Z,98379.13
2023-03-10T16:20:12.649Z,98400.16
2023-03-10T16:22:42.741Z,98418.19
2023-03-10T16:25:18.193Z,98412.53
2023-03-10T16:27:46.053Z,98428.44
2023-03-10T16:30:18.483Z,98420.31
2023-03-10T16:32:47.819Z,98422.63
2023-03-10T16:35:16.188Z,98433.91
2023-03-10T16:37:43.641Z,98430.78
2023-03-10T16:40:11.641Z,98429.50
2023-03-10T16:42:38.897Z,98419.16
2023-03-10T16:45:07.359Z,98415.72
2023-03-10T16:47:34.348Z,98413.94
2023-03-10T16:50:01.437Z,98411.38
2023-03-10T16:52:28.362Z,98427.44
2023-03-10T16:55:01.722Z,98413.13
2023-03-10T16:57:28.672Z,98418.47
2023-03-10T16:59:55.659Z,98410.56
2023-03-10T17:02:22.547Z,98409.25
2023-03-10T17:04:49.645Z,98416.47
2023-03-10T17:07:16.873Z,98411.72
2023-03-10T17:09:45.620Z,98411.22
2023-03-10T17:12:12.683Z,98405.69
2023-03-10T17:14:39.844Z,98410.78
2023-03-10T17:17:08.101Z,98405.28
2023-03-10T17:19:35.454Z,98400.78
2023-03-10T17:22:02.663Z,98420.50
2023-03-10T17:24:29.614Z,98423.19
2023-03-10T17:26:56.581Z,98440.75
2023-03-10T17:29:23.525Z,98446.09
2023-03-10T17:31:51.745Z,98443.44
2023-03-10T17:34:19.686Z,98436.00
2023-03-10T17:36:50.675Z,98433.63
2023-03-10T17:39:21.456Z,98427.25
2023-03-10T17:41:49.155Z,98423.78
2023-03-10T17:44:16.855Z,98430.41
2023-03-10T17:46:45.367Z,98425.38
2023-03-10T17:49:14.526Z,98419.00
2023-03-10T17:51:44.164Z,98401.72
2023-03-10T17:54:20.166Z,98404.66
2023-03-10T17:56:47.702Z,98409.72
2023-03-10T17:59:16.128Z,98400.16
2023-03-10T18:01:44.639Z,98406.25
2023-03-10T18:04:12.206Z,98406.00
2023-03-10T18:06:39.378Z,98405.22
2023-03-10T18:09:12.355Z,98401.50
2023-03-10T18:11:39.710Z,98413.72
2023-03-10T18:14:07.150Z,98426.75
2023-03-10T18:16:39.026Z,98446.13
2023-03-10T18:19:10.478Z,98435.50
2023-03-10T18:21:38.164Z,98424.63
2023-03-10T18:24:06.471Z,98413.47
2023-03-10T18:26:33.787Z,98398.59
2023-03-10T18:29:01.121Z,98388.75
2023-03-10T18:31:31.925Z,98401.50
2023-03-10T18:33:59.764Z,98406.78
2023-03-10T18:36:27.477Z,98410.78
2023-03-10T18:38:54.989Z,98406.78
2023-03-10T18:41:29.545Z,98394.59
2023-03-10T18:43:57.210Z,98396.72
2023-03-10T18:46:24.338Z,98398.03
2023-03-10T18:48:55.899Z,98397.78
2023-03-10T18:51:25.493Z,98403.06
2023-03-10T18:53:52.601Z,98401.75
2023-03-10T18:56:19.730Z,98385.56
2023-03-10T18:58:46.786Z,98385.81
2023-03-10T19:01:14.953Z,98381.03
2023-03-10T19:03:42.416Z,98371.50
2023-03-10T19:06:09.658Z,98380.25
2023-03-10T19:08:38.938Z,98371.22
2023-03-10T19:11:07.036Z,98374.94
2023-03-10T19:13:34.541Z,98369.09
2023-03-10T19:16:08.457Z,98368.03
2023-03-10T19:18:35.905Z,98380.50
2023-03-10T19:21:03.621Z,98372.53
2023-03-10T19:23:30.856Z,98365.09
2023-03-10T19:25:58.131Z,98370.94
2023-03-10T19:28:25.174Z,98364.31
2023-03-10T19:30:52.186Z,98368.03
2023-03-10T19:33:19.331Z,98374.41
2023-03-10T19:35:46.289Z,98377.56
2023-03-10T19:38:13.372Z,98367.75
2023-03-10T19:40:40.347Z,98364.56
2023-03-10T19:43:07.349Z,98378.38
2023-03-10T19:45:34.338Z,98370.69
2023-03-10T19:48:01.355Z,98362.72
2023-03-10T19:50:28.524Z,98366.97
2023-03-10T19:52:55.535Z,98379.97
2023-03-10T19:55:25.125Z,98371.75
2023-03-10T19:57:55.782Z,98358.47
2023-03-10T20:00:31.208Z,98358.22
2023-03-10T20:02:58.595Z,98356.63
2023-03-10T20:05:26.754Z,98347.06
2023-03-10T20:07:54.196Z,98347.06
2023-03-10T20:10:21.242Z,98345.47
2023-03-10T20:12:48.361Z,98339.09
2023-03-10T20:15:17.072Z,98340.69
2023-03-10T20:17:44.193Z,98340.69
2023-03-10T20:20:13.382Z,98338.31
2023-03-10T20:22:43.589Z,98331.41
2023-03-10T20:25:14.252Z,98326.63
2023-03-10T20:27:41.582Z,98323.69
2023-03-10T20:30:14.356Z,98317.06
2023-03-10T20:32:41.632Z,98326.63
2023-03-10T20:35:09.100Z,98319.72
2023-03-10T20:37:38.454Z,98317.06
2023-03-10T20:40:07.593Z,98315.22
2023-03-10T20:42:34.611Z,98325.03
2023-03-10T20:45:02.698Z,98319.72
2023-03-10T20:47:30.048Z,98322.91
2023-03-10T20:49:57.392Z,98323.16
2023-03-10T20:52:24.723Z,98315.75
2023-03-10T20:54:55.031Z,98315.47
2023-03-10T20:57:22.385Z,98322.91
2023-03-10T20:59:49.484Z,98316.53
2023-03-10T21:02:17.742Z,98314.41
2023-03-10T21:04:47.107Z,98325.81
2023-03-10T21:07:14.375Z,98323.16
2023-03-10T21:09:42.102Z,98324.22
2023-03-10T21:12:09.044Z,98319.44
2023-03-10T21:14:35.916Z,98319.72
2023-03-10T21:17:03.287Z,98318.13
2023-03-10T21:19:55.517Z,98322.63
2023-03-10T21:22:22.693Z,98321.31
2023-03-10T21:24:49.741Z,98318.66
2023-03-10T21:27:17.253Z,98323.97
2023-03-10T21:29:44.274Z,98314.66
2023-03-10T21:32:11.224Z,98316.00
2023-03-10T21:34:38.968Z,98310.97
2023-03-10T21:37:08.641Z,98316.25
2023-03-10T21:39:35.551Z,98319.72
2023-03-10T21:42:02.491Z,98322.09
2023-03-10T21:44:30.318Z,98313.06
2023-03-10T21:46:57.421Z,98322.63
2023-03-10T21:49:24.501Z,98328.72
2023-03-10T21:51:51.575Z,98305.13
2023-03-10T21:54:18.775Z,98317.06
2023-03-10T21:56:45.938Z,98306.97
2023-03-10T21:59:13.117Z,98304.59
2023-03-10T22:01:40.317Z,98300.59
2023-03-10T22:04:07.327Z,98310.94
2023-03-10T22:06:34.584Z,98313.06
2023-03-10T22:09:01.520Z,98313.06
2023-03-10T22:14:10.836Z,98304.31
2023-03-10T22:16:38.018Z,98309.88
2023-03-10T22:19:05.129Z,98300.81
2023-03-10T22:21:31.998Z,98293.66
2023-03-10T22:23:59.940Z,98294.72
2023-03-10T22:26:26.922Z,98290.22
2023-03-10T22:28:54.368Z,98286.22
2023-03-10T22:31:22.221Z,98287.81
2023-03-10T22:33:49.310Z,98285.16
2023-03-10T22:36:16.264Z,98285.16
2023-03-10T22:38:43.270Z,98284.09
2023-03-10T22:41:12.298Z,98289.66
2023-03-10T22:43:39.479Z,98285.94
2023-03-10T22:46:17.127Z,98298.66
2023-03-10T22:48:44.570Z,98294.69
2023-03-10T22:51:17.045Z,98300.50
2023-03-10T22:53:46.768Z,98293.09
2023-03-10T22:56:13.932Z,98298.13
2023-03-10T22:58:41.052Z,98304.22
2023-03-10T23:01:08.244Z,98306.34
2023-03-10T23:03:36.300Z,98306.34
2023-03-10T23:06:05.902Z,98312.97
2023-03-10T23:08:33.588Z,98308.72
2023-03-10T23:11:00.546Z,98303.66
2023-03-10T23:13:27.509Z,98312.16
2023-03-10T23:15:54.613Z,98314.78
2023-03-10T23:18:21.757Z,98313.19
2023-03-10T23:20:49.181Z,98316.38
2023-03-10T23:23:18.346Z,98317.16
2023-03-10T23:25:48.746Z,98323.53
2023-03-10T23:28:16.274Z,98327.75
2023-03-10T23:30:45.746Z,98329.88
2023-03-10T23:33:18.455Z,98326.19
2023-03-10T23:35:54.922Z,98328.56
2023-03-10T23:38:24.969Z,98324.31
2023-03-10T23:40:53.956Z,98311.84
2023-03-10T23:43:21.578Z,98313.16
2023-03-10T23:45:49.278Z,98333.06
2023-03-10T23:48:17.926Z,98334.91
2023-03-10T23:50:47.646Z,98333.03
2023-03-10T23:53:17.279Z,98332.22
2023-03-10T23:55:47.111Z,98340.69
2023-03-10T23:58:16.706Z,98342.78
